createdAt,value
2023-04-25T00:00:50.271Z,100.00
2023-04-25T00:03:41.196Z,100.00
2023-04-25T00:07:08.796Z,100.00
2023-04-25T00:10:36.824Z,100.00
2023-04-25T00:13:45.972Z,100.00
2023-04-25T00:17:14.183Z,100.00
2023-04-25T00:20:42.071Z,100.00
2023-04-25T00:24:10.203Z,100.00
2023-04-25T00:27:38.167Z,100.00
2023-04-25T00:31:05.954Z,100.00
2023-04-25T00:34:14.475Z,100.00
2023-04-25T00:37:42.344Z,100.00
2023-04-25T00:41:10.570Z,100.00
2023-04-25T00:44:38.587Z,100.00
2023-04-25T00:48:06.526Z,100.00
2023-04-25T00:51:15.601Z,100.00
2023-04-25T00:54:43.509Z,100.00
2023-04-25T00:58:11.524Z,100.00
2023-04-25T01:01:39.432Z,100.00
2023-04-25T01:05:07.517Z,100.00
2023-04-25T01:08:17.857Z,100.00
2023-04-25T01:11:08.085Z,100.00
2023-04-25T01:14:36.153Z,100.00
2023-04-25T01:18:04.236Z,100.00
2023-04-25T01:21:14.060Z,100.00
2023-04-25T01:24:41.961Z,100.00
2023-04-25T01:28:09.692Z,100.00
2023-04-25T01:31:37.653Z,100.00
2023-04-25T01:35:05.691Z,100.00
2023-04-25T01:38:33.711Z,100.00
2023-04-25T01:42:01.581Z,100.00
2023-04-25T01:45:10.476Z,100.00
2023-04-25T01:48:38.371Z,100.00
2023-04-25T01:52:06.068Z,100.00
2023-04-25T01:55:34.129Z,100.00
2023-04-25T01:58:43.889Z,100.00
2023-04-25T02:01:52.873Z,100.00
2023-04-25T02:05:20.906Z,100.00
2023-04-25T02:08:48.578Z,100.00
2023-04-25T02:12:16.505Z,100.00
2023-04-25T02:15:44.108Z,100.00
2023-04-25T02:18:54.607Z,100.00
2023-04-25T02:22:22.518Z,100.00
2023-04-25T02:25:11.831Z,100.00
2023-04-25T02:28:39.506Z,100.00
2023-04-25T02:32:07.508Z,100.00
2023-04-25T02:35:35.457Z,100.00
2023-04-25T02:39:03.497Z,100.00
2023-04-25T02:42:31.533Z,100.00
2023-04-25T02:45:59.376Z,100.00
2023-04-25T02:49:09.459Z,100.00
2023-04-25T02:52:37.534Z,100.00
2023-04-25T02:56:05.683Z,100.00
2023-04-25T02:59:33.767Z,100.00
2023-04-25T03:03:01.939Z,100.00
2023-04-25T03:06:29.756Z,100.00
2023-04-25T03:09:57.477Z,100.00
2023-04-25T03:13:06.410Z,100.00
2023-04-25T03:16:34.373Z,100.00
2023-04-25T03:20:02.505Z,100.00
2023-04-25T03:23:30.405Z,100.00
2023-04-25T03:26:58.810Z,100.00
2023-04-25T03:30:26.753Z,100.00
2023-04-25T03:33:54.859Z,100.00
2023-04-25T03:37:23.271Z,100.00
2023-04-25T03:40:51.332Z,100.00
2023-04-25T03:44:19.334Z,100.00
2023-04-25T03:47:28.477Z,100.00
2023-04-25T03:50:37.493Z,100.00
2023-04-25T03:54:05.513Z,100.00
2023-04-25T03:57:36.489Z,100.00
2023-04-25T04:00:45.403Z,100.00
2023-04-25T04:04:13.811Z,100.00
2023-04-25T04:07:41.278Z,100.00
2023-04-25T04:11:09.061Z,100.00
2023-04-25T04:14:37.049Z,100.00
2023-04-25T04:17:26.370Z,100.00
2023-04-25T04:20:54.285Z,100.00
2023-04-25T04:24:01.102Z,100.00
2023-04-25T04:26:53.916Z,100.00
2023-04-25T04:30:34.291Z,100.00
2023-04-25T04:34:05.927Z,100.00
2023-04-25T04:37:34.404Z,100.00
2023-04-25T04:41:02.303Z,100.00
2023-04-25T04:44:14.794Z,100.00
2023-04-25T04:47:42.878Z,100.00
2023-04-25T04:51:17.554Z,100.00
2023-04-25T04:54:46.874Z,100.00
2023-04-25T04:58:27.633Z,100.00
2023-04-25T05:02:01.728Z,100.00
2023-04-25T05:05:25.637Z,100.00
2023-04-25T05:08:53.489Z,100.00
2023-04-25T05:12:21.593Z,100.00
2023-04-25T05:15:49.544Z,100.00
2023-04-25T05:19:17.835Z,100.00
2023-04-25T05:22:57.953Z,100.00
2023-04-25T05:26:32.036Z,100.00
2023-04-25T05:29:58.659Z,100.00
2023-04-25T05:33:26.632Z,100.00
2023-04-25T05:36:54.692Z,100.00
2023-04-25T05:40:22.751Z,100.00
2023-04-25T05:43:51.323Z,100.00
2023-04-25T05:47:27.834Z,100.00
2023-04-25T05:50:57.242Z,100.00
2023-04-25T05:54:40.338Z,100.00
2023-04-25T05:57:51.391Z,100.00
2023-04-25T06:01:17.493Z,100.00
2023-04-25T06:04:07.169Z,100.00
2023-04-25T06:07:31.628Z,100.00
2023-04-25T06:10:59.578Z,100.00
2023-04-25T06:14:29.572Z,100.00
2023-04-25T06:17:55.469Z,100.00
2023-04-25T06:21:23.672Z,100.00
2023-04-25T06:24:51.769Z,100.00
2023-04-25T06:28:19.518Z,100.00
2023-04-25T06:31:47.422Z,100.00
2023-04-25T06:35:15.693Z,100.00
2023-04-25T06:38:43.793Z,100.00
2023-04-25T06:42:11.792Z,100.00
2023-04-25T06:45:39.695Z,100.00
2023-04-25T06:49:07.640Z,100.00
2023-04-25T06:52:35.442Z,100.00
2023-04-25T06:56:03.276Z,100.00
2023-04-25T06:59:12.242Z,100.00
2023-04-25T07:02:01.053Z,100.00
2023-04-25T07:05:29.028Z,100.00
2023-04-25T07:08:56.932Z,100.00
2023-04-25T07:12:24.822Z,100.00
2023-04-25T07:15:15.052Z,100.00
2023-04-25T07:18:39.373Z,100.00
2023-04-25T07:21:48.033Z,100.00
2023-04-25T07:24:59.610Z,100.00
2023-04-25T07:28:27.549Z,100.00
2023-04-25T07:31:55.615Z,100.00
2023-04-25T07:35:23.257Z,100.00
2023-04-25T07:38:51.273Z,100.00
2023-04-25T07:41:59.407Z,100.00
2023-04-25T07:45:27.317Z,100.00
2023-04-25T07:48:55.168Z,100.00
2023-04-25T07:52:11.209Z,100.00
2023-04-25T07:55:20.800Z,100.00
2023-04-25T07:58:28.032Z,100.00
2023-04-25T08:01:36.244Z,100.00
2023-04-25T08:04:07.008Z,100.00
2023-04-25T08:07:34.813Z,100.00
2023-04-25T08:11:02.658Z,100.00
2023-04-25T08:13:52.560Z,100.00
2023-04-25T08:17:17.353Z,100.00
2023-04-25T08:20:45.131Z,100.00
2023-04-25T08:23:53.240Z,100.00
2023-04-25T08:27:01.365Z,100.00
2023-04-25T08:30:13.166Z,100.00
2023-04-25T08:33:24.937Z,100.00
2023-04-25T08:36:39.856Z,100.00
2023-04-25T08:39:54.994Z,100.00
2023-04-25T08:42:47.351Z,100.00
2023-04-25T08:46:15.250Z,100.00
2023-04-25T08:49:21.722Z,100.00
2023-04-25T08:52:12.462Z,100.00
2023-04-25T08:55:40.543Z,100.00
2023-04-25T08:58:47.125Z,100.00
2023-04-25T09:02:15.130Z,100.00
2023-04-25T09:05:03.947Z,100.00
2023-04-25T09:08:14.283Z,100.00
2023-04-25T09:11:41.134Z,100.00
2023-04-25T09:15:09.029Z,100.00
2023-04-25T09:18:37.088Z,100.00
2023-04-25T09:22:04.973Z,100.00
2023-04-25T09:25:13.768Z,100.00
2023-04-25T09:28:41.651Z,100.00
2023-04-25T09:31:31.223Z,100.00
2023-04-25T09:34:59.270Z,100.00
2023-04-25T09:38:26.927Z,100.00
2023-04-25T09:41:57.809Z,100.00
2023-04-25T09:45:06.891Z,100.00
2023-04-25T09:48:15.557Z,100.00
2023-04-25T09:51:24.183Z,100.00
2023-04-25T09:54:33.166Z,100.00
2023-04-25T09:57:46.142Z,100.00
2023-04-25T10:01:14.718Z,100.00
2023-04-25T10:04:42.603Z,100.00
2023-04-25T10:08:10.486Z,100.00
2023-04-25T10:11:38.116Z,100.00
2023-04-25T10:15:06.224Z,100.00
2023-04-25T10:18:33.990Z,100.00
2023-04-25T10:22:02.138Z,100.00
2023-04-25T10:25:30.229Z,100.00
2023-04-25T10:28:58.117Z,100.00
2023-04-25T10:32:27.497Z,100.00
2023-04-25T10:35:55.036Z,100.00
2023-04-25T10:39:22.924Z,100.00
2023-04-25T10:42:11.446Z,100.00
2023-04-25T10:45:39.483Z,100.00
2023-04-25T10:48:48.531Z,100.00
2023-04-25T10:51:57.681Z,100.00
2023-04-25T10:55:25.766Z,100.00
2023-04-25T11:01:06.362Z,100.00
2023-04-25T11:04:34.391Z,100.00
2023-04-25T11:07:23.751Z,100.00
2023-04-25T11:10:52.255Z,100.00
2023-04-25T11:14:00.913Z,100.00
2023-04-25T11:17:29.148Z,100.00
2023-04-25T11:20:57.274Z,100.00
2023-04-25T11:24:25.255Z,100.00
2023-04-25T11:27:14.641Z,100.00
2023-04-25T11:30:23.340Z,100.00
2023-04-25T11:33:51.534Z,100.00
2023-04-25T11:37:19.234Z,100.00
2023-04-25T11:40:27.582Z,100.00
2023-04-25T11:43:55.598Z,100.00
2023-04-25T11:46:44.777Z,100.00
2023-04-25T11:50:12.687Z,100.00
2023-04-25T11:53:40.590Z,100.00
2023-04-25T11:56:52.842Z,100.00
2023-04-25T12:00:01.997Z,100.00
2023-04-25T12:03:30.017Z,100.00
2023-04-25T12:06:20.694Z,100.00
2023-04-25T12:09:48.360Z,100.00
2023-04-25T12:13:16.058Z,100.00
2023-04-25T12:16:23.904Z,100.00
2023-04-25T12:19:51.688Z,100.00
2023-04-25T12:23:19.625Z,100.00
2023-04-25T12:26:08.758Z,100.00
2023-04-25T12:29:48.581Z,100.00
2023-04-25T12:33:04.530Z,100.00
2023-04-25T12:36:32.482Z,100.00
2023-04-25T12:40:00.241Z,100.00
2023-04-25T12:43:08.568Z,100.00
2023-04-25T12:46:16.976Z,100.00
2023-04-25T12:49:25.859Z,100.00
2023-04-25T12:52:53.820Z,100.00
2023-04-25T12:56:23.620Z,100.00
2023-04-25T12:59:30.641Z,100.00
2023-04-25T13:02:58.548Z,100.00
2023-04-25T13:05:47.474Z,100.00
2023-04-25T13:09:15.264Z,100.00
2023-04-25T13:12:43.309Z,100.00
2023-04-25T13:16:11.096Z,100.00
2023-04-25T13:19:38.958Z,100.00
2023-04-25T13:22:46.689Z,100.00
2023-04-25T13:26:14.732Z,100.00
2023-04-25T13:29:42.711Z,100.00
2023-04-25T13:32:50.593Z,100.00
2023-04-25T13:36:18.302Z,100.00
2023-04-25T13:39:27.323Z,100.00
2023-04-25T13:42:55.446Z,100.00
2023-04-25T13:46:03.368Z,100.00
2023-04-25T13:49:31.256Z,100.00
2023-04-25T13:52:59.080Z,100.00
2023-04-25T13:56:08.905Z,100.00
2023-04-25T13:59:36.777Z,100.00
2023-04-25T14:03:04.768Z,100.00
2023-04-25T14:05:52.577Z,100.00
2023-04-25T14:09:20.773Z,100.00
2023-04-25T14:12:48.668Z,100.00
2023-04-25T14:15:36.969Z,100.00
2023-04-25T14:19:04.837Z,100.00
2023-04-25T14:22:32.741Z,100.00
2023-04-25T14:25:02.597Z,100.00
2023-04-25T14:28:30.486Z,100.00
2023-04-25T14:31:47.484Z,100.00
2023-04-25T14:34:35.632Z,100.00
2023-04-25T14:37:43.694Z,100.00
2023-04-25T14:41:11.678Z,100.00
2023-04-25T14:44:39.533Z,100.00
2023-04-25T14:48:08.151Z,97.51
2023-04-25T14:51:36.062Z,93.04
2023-04-25T14:54:47.668Z,90.90
2023-04-25T14:58:15.630Z,90.10
2023-04-25T15:01:06.547Z,91.63
2023-04-25T15:03:35.519Z,91.96
2023-04-25T15:06:26.558Z,91.85
2023-04-25T15:08:57.323Z,91.69
2023-04-25T15:11:27.882Z,90.01
2023-04-25T15:14:20.168Z,92.04
2023-04-25T15:17:29.124Z,93.40
2023-04-25T15:19:57.882Z,94.93
2023-04-25T15:22:46.017Z,96.67
2023-04-25T15:26:09.830Z,93.35
2023-04-25T15:28:57.851Z,96.94
2023-04-25T15:31:30.140Z,95.29
2023-04-25T15:33:59.228Z,98.42
2023-04-25T15:36:47.277Z,97.03
2023-04-25T15:39:55.181Z,96.01
2023-04-25T15:42:23.647Z,93.78
2023-04-25T15:45:51.545Z,94.55
2023-04-25T15:48:41.652Z,88.64
2023-04-25T15:51:12.188Z,83.03
2023-04-25T15:53:41.623Z,78.47
2023-04-25T15:56:30.739Z,70.55
2023-04-25T15:59:00.056Z,64.25
2023-04-25T16:02:17.094Z,61.57
2023-04-25T16:04:46.849Z,62.44
2023-04-25T16:07:16.226Z,64.42
2023-04-25T16:10:05.729Z,66.14
2023-04-25T16:13:13.634Z,67.00
2023-04-25T16:15:41.830Z,69.04
2023-04-25T16:18:50.121Z,66.70
2023-04-25T16:22:18.206Z,64.89
2023-04-25T16:25:26.598Z,62.26
2023-04-25T16:28:54.559Z,61.03
2023-04-25T16:31:24.176Z,62.42
2023-04-25T16:34:51.770Z,64.38
2023-04-25T16:37:20.125Z,66.34
2023-04-25T16:39:48.350Z,68.54
2023-04-25T16:42:56.169Z,71.34
2023-04-25T16:46:04.087Z,74.38
2023-04-25T16:49:12.339Z,76.37
2023-04-25T16:52:40.541Z,79.07
2023-04-25T16:55:29.127Z,81.46
2023-04-25T16:57:58.141Z,82.47
2023-04-25T17:01:05.895Z,81.29
2023-04-25T17:03:56.727Z,80.72
2023-04-25T17:06:46.101Z,81.55
2023-04-25T17:09:34.395Z,82.08
2023-04-25T17:12:42.801Z,82.89
2023-04-25T17:16:10.560Z,82.97
2023-04-25T17:19:39.572Z,84.88
2023-04-25T17:22:27.550Z,86.36
2023-04-25T17:25:35.501Z,90.07
2023-04-25T17:28:43.211Z,93.27
2023-04-25T17:31:51.044Z,97.32
2023-04-25T17:34:58.861Z,99.97
2023-04-25T17:38:06.605Z,100.00
2023-04-25T17:40:54.650Z,100.00
2023-04-25T17:44:23.397Z,100.00
2023-04-25T17:47:27.349Z,100.00
2023-04-25T17:50:36.518Z,100.00
2023-04-25T17:54:06.836Z,100.00
2023-04-25T17:57:34.865Z,100.00
2023-04-25T18:01:02.625Z,100.00
2023-04-25T18:04:30.359Z,100.00
2023-04-25T18:07:53.716Z,100.00
2023-04-25T18:11:21.747Z,100.00
2023-04-25T18:14:10.176Z,100.00
2023-04-25T18:16:59.109Z,100.00
2023-04-25T18:19:28.518Z,100.00
2023-04-25T18:22:16.184Z,100.00
2023-04-25T18:25:24.353Z,100.00
2023-04-25T18:28:20.004Z,100.00
2023-04-25T18:31:09.157Z,100.00
2023-04-25T18:33:57.732Z,100.00
2023-04-25T18:37:25.502Z,100.00
2023-04-25T18:40:35.135Z,100.00
2023-04-25T18:43:42.079Z,100.00
2023-04-25T18:47:09.698Z,100.00
2023-04-25T18:50:38.584Z,100.00
2023-04-25T18:54:05.380Z,100.00
2023-04-25T18:57:33.081Z,100.00
2023-04-25T19:00:40.890Z,100.00
2023-04-25T19:03:50.749Z,100.00
2023-04-25T19:06:19.526Z,100.00
2023-04-25T19:09:10.494Z,100.00
2023-04-25T19:12:38.393Z,100.00
2023-04-25T19:15:26.124Z,100.00
2023-04-25T19:18:34.158Z,100.00
2023-04-25T19:21:42.453Z,100.00
2023-04-25T19:25:11.164Z,100.00
2023-04-25T19:28:38.338Z,100.00
2023-04-25T19:31:46.268Z,100.00
2023-04-25T19:35:14.083Z,100.00
2023-04-25T19:38:22.296Z,100.00
2023-04-25T19:41:50.104Z,100.00
2023-04-25T19:45:17.866Z,100.00
2023-04-25T19:48:25.944Z,100.00
2023-04-25T19:51:34.648Z,100.00
2023-04-25T19:54:42.904Z,100.00
2023-04-25T19:58:10.535Z,100.00
2023-04-25T20:01:18.779Z,100.00
2023-04-25T20:04:06.720Z,100.00
2023-04-25T20:06:44.812Z,100.00
2023-04-25T20:10:12.587Z,100.00
2023-04-25T20:13:40.180Z,100.00
2023-04-25T20:17:08.044Z,100.00
2023-04-25T20:20:36.021Z,100.00
2023-04-25T20:23:45.077Z,100.00
2023-04-25T20:27:12.650Z,100.00
2023-04-25T20:30:40.187Z,100.00
2023-04-25T20:34:07.945Z,100.00
2023-04-25T20:36:56.432Z,100.00
2023-04-25T20:40:24.065Z,100.00
2023-04-25T20:43:51.848Z,100.00
2023-04-25T20:47:19.507Z,100.00
2023-04-25T20:50:32.734Z,100.00
2023-04-25T20:53:40.840Z,100.00
2023-04-25T20:57:08.523Z,100.00
2023-04-25T21:00:36.937Z,100.00
2023-04-25T21:03:45.902Z,100.00
2023-04-25T21:07:13.323Z,100.00
2023-04-25T21:10:41.080Z,100.00
2023-04-25T21:14:08.749Z,100.00
2023-04-25T21:17:17.058Z,100.00
2023-04-25T21:20:32.307Z,100.00
2023-04-25T21:23:21.314Z,100.00
2023-04-25T21:26:29.264Z,100.00
2023-04-25T21:29:57.023Z,100.00
2023-04-25T21:33:05.944Z,100.00
2023-04-25T21:36:15.462Z,100.00
2023-04-25T21:39:43.198Z,100.00
2023-04-25T21:43:09.178Z,100.00
2023-04-25T21:46:23.560Z,100.00
2023-04-25T21:49:48.072Z,100.00
2023-04-25T21:53:15.579Z,100.00
2023-04-25T21:56:43.456Z,100.00
2023-04-25T22:00:11.142Z,100.00
2023-04-25T22:03:38.867Z,100.00
2023-04-25T22:06:46.829Z,100.00
2023-04-25T22:09:17.447Z,100.00
2023-04-25T22:12:45.258Z,100.00
2023-04-25T22:16:12.803Z,100.00
2023-04-25T22:19:40.525Z,100.00
2023-04-25T22:23:08.317Z,100.00
2023-04-25T22:26:35.988Z,100.00
2023-04-25T22:30:03.629Z,100.00
2023-04-25T22:33:31.304Z,100.00
2023-04-25T22:36:59.078Z,100.00
2023-04-25T22:40:26.683Z,100.00
2023-04-25T22:43:54.069Z,100.00
2023-04-25T22:47:22.306Z,100.00
2023-04-25T22:50:50.330Z,100.00
2023-04-25T22:54:18.283Z,100.00
2023-04-25T22:57:45.853Z,100.00
2023-04-25T23:01:13.672Z,100.00
2023-04-25T23:04:41.110Z,100.00
2023-04-25T23:08:08.817Z,100.00
2023-04-25T23:11:36.960Z,100.00
2023-04-25T23:14:45.593Z,100.00
2023-04-25T23:18:13.026Z,100.00
2023-04-25T23:21:40.740Z,100.00
2023-04-25T23:24:49.602Z,100.00
2023-04-25T23:28:17.356Z,100.00
2023-04-25T23:31:45.220Z,100.00
2023-04-25T23:35:12.927Z,100.00
2023-04-25T23:38:02.295Z,100.00
2023-04-25T23:41:29.994Z,100.00
2023-04-25T23:44:57.721Z,100.00
2023-04-25T23:48:25.447Z,100.00
2023-04-25T23:51:53.442Z,100.00
2023-04-25T23:55:01.932Z,100.00
2023-04-25T23:58:29.503Z,100.00
